• Join FlightAware (Why Join?)
  • Login
  • US Flag 
03:57PM EDT


 

Airport Tracker/Info


-or-


 

Live Flight TrackerFlight Track Log ✈ AWI3833 ✈ 20-Jun-2013 ✈ KPHL - KSYR

Flight Track Log - Related Links

Times and Time Zones

All times are in EDT time to prevent confusion due to time zone crossing. See the AWI3833 flight status page for this flight to view local times or setup timezone preferences in your user account.

Time Position Orientation Groundspeed Altitude Reporting Facility
EDT Latitude Longitude Course Direction KTS MPH feet Rate Location/Type
02:44PM 39.8667 -75.2833 308° West 171 197 1,000  Level Philadelphia TRACON
02:45PM 39.8500 -75.3500 252° West 208 239 2,800 2,520 Climbing Philadelphia TRACON
02:46PM 39.8333 -75.4167 252° West 209 241 5,800 2,520 Climbing Philadelphia TRACON
02:47PM 39.8667 -75.4833 303° West 251 289 7,600 2,280 Climbing Philadelphia TRACON
02:48PM 40.1902 -75.5402 323° Northwest  Level FlightAware Approximate
02:49PM 40.2655 -75.6232 311° West  Level FlightAware Approximate
02:49PM 39.9667 -75.5000 353° North 276 318 10,900  Level Philadelphia TRACON
02:49PM 40.0333 -75.5333 339° North 297 342 12,000 540 Climbing Philadelphia TRACON
02:50PM 40.3324 -75.7262 308° West  Level FlightAware Approximate
02:51PM 40.1292 -75.5489 353° North 391 450 12,000  Level New York Center
02:52PM 40.2325 -75.5750 349° North 396 456 13,300 960 Climbing New York Center
02:53PM 40.3192 -75.6436 329° Northwest 374 430 14,000 300 Climbing New York Center
02:54PM 40.4058 -75.7153 328° Northwest 368 423 14,000  Level New York Center
02:55PM 40.4903 -75.7922 325° Northwest 368 423 14,000  Level New York Center
02:56PM 40.5708 -75.8583 328° Northwest 373 429 14,000  Level New York Center
02:57PM 40.6694 -75.9394 328° Northwest 373 429 14,000  Level New York Center
02:58PM 40.7456 -76.0083 326° Northwest 379 436 14,000  Level New York Center
02:59PM 40.8419 -76.0897 327° Northwest 379 436 14,000  Level New York Center
03:00PM 40.9281 -76.1650 327° Northwest 379 436 14,000  Level New York Center
03:01PM 41.0211 -76.2275 333° Northwest 379 436 14,000  Level New York Center
03:02PM 41.1175 -76.2158 North 370 426 14,000  Level New York Center
03:03PM 41.2239 -76.2108 North 377 434 14,000  Level New York Center
03:04PM 41.3411 -76.2008 North 382 440 14,000  Level New York Center
03:05PM 41.4475 -76.1928 North 388 447 14,100  Climbing New York Center
03:06PM 41.5542 -76.1850 North 388 447 14,100 -60 Level New York Center
03:07PM 41.6503 -76.1786 North 388 447 14,000 -60 Descending New York Center
03:08PM 41.7569 -76.1708 North 388 447 14,000  Level New York Center
03:09PM 41.8717 -76.1633 North 388 447 14,000 -360 Level New York Center
03:10PM 41.9783 -76.1553 North 388 447 13,400 -840 Descending New York Center
03:11PM 42.0892 -76.1447 North 394 453 12,400 -1,080 Descending New York Center
03:12PM 42.1936 -76.1364 North 383 441 11,300 -720 Descending New York Center
03:13PM 42.2961 -76.1225 North 383 441 11,000 -180 Descending New York Center
03:14PM 42.4097 -76.1100 North 371 427 11,000  Level Boston Center
03:15PM 42.5186 -76.0969 North 372 428 11,000 -60 Level Boston Center
03:16PM 42.6211 -76.0858 North 367 422 10,900 -600 Descending Boston Center
03:17PM 42.7025 -76.0878 359° North 278 320 9,800 -1,380 Descending Boston Center
03:18PM 42.7769 -76.1092 348° North 263 303 8,200 -1,740 Descending Boston Center
03:19PM 42.8469 -76.0708 22° Northeast 277 319 6,400 -1,740 Descending Boston Center
03:20PM 42.9150 -76.0239 27° Northeast 276 318 4,700 -1,440 Descending Boston Center
03:21PM 42.9853 -75.9769 26° Northeast 262 302 3,500 -1,200 Descending Boston Center